Time;durP1;ratioP1;P1;durP2;ratioP2;P2;SDS_P1;SDS_P2;PMS_P1;PMS_P2;Temp;Humidity;BMP_temperature;BMP_pressure;BME280_temperature;BME280_humidity;BME280_pressure;Samples;Min_cycle;Max_cycle;Signal;HPM_P1;HPM_P2
2022/05/17 00:03:11;;;;;;;8.43;5.60;;;;;;;13.82;100.00;96705.81;10416884;28;20188;-54
2022/05/17 00:08:13;;;;;;;7.45;5.60;;;;;;;13.84;100.00;96699.38;10415953;28;20216;-53
2022/05/17 00:13:13;;;;;;;6.57;5.80;;;;;;;13.86;100.00;96701.84;10418023;28;20220;-58
2022/05/17 00:18:15;;;;;;;7.10;4.88;;;;;;;13.96;100.00;96706.84;10415792;28;20220;-58
2022/05/17 00:23:15;;;;;;;6.88;5.78;;;;;;;13.91;100.00;96712.66;10414361;28;20192;-51
2022/05/17 00:28:19;;;;;;;6.50;5.80;;;;;;;13.96;100.00;96706.84;10415101;28;20208;-54
2022/05/17 00:33:21;;;;;;;8.27;6.00;;;;;;;14.01;100.00;96715.03;10413793;28;20262;-54
2022/05/17 00:38:21;;;;;;;10.98;7.72;;;;;;;13.93;100.00;96704.59;10415284;28;20768;-57
2022/05/17 00:43:29;;;;;;;10.80;6.72;;;;;;;14.03;100.00;96713.06;10411440;28;20196;-51
2022/05/17 00:48:29;;;;;;;8.10;7.30;;;;;;;14.04;100.00;96714.69;10414307;28;20237;-55
2022/05/17 00:53:33;;;;;;;9.75;7.68;;;;;;;14.03;100.00;96713.88;10414591;28;20353;-56
2022/05/17 00:58:39;;;;;;;11.38;7.20;;;;;;;14.19;100.00;96720.78;10412614;28;20239;-56
2022/05/17 01:03:46;;;;;;;12.05;8.82;;;;;;;14.07;100.00;96719.59;10412454;28;20259;-55
2022/05/17 01:08:47;;;;;;;9.15;7.85;;;;;;;14.19;100.00;96714.72;10412490;28;20350;-56
2022/05/17 01:19:08;;;;;;;11.30;7.60;;;;;;;14.40;100.00;96706.91;10413505;28;20262;-50
2022/05/17 01:24:08;;;;;;;9.40;8.30;;;;;;;14.34;100.00;96702.38;10412656;28;20235;-58
2022/05/17 01:29:10;;;;;;;13.13;8.68;;;;;;;14.45;100.00;96701.91;10412436;28;20776;-57
2022/05/17 01:34:11;;;;;;;13.68;8.32;;;;;;;14.48;100.00;96694.66;10412356;28;20228;-56
2022/05/17 01:39:12;;;;;;;9.20;8.20;;;;;;;14.67;100.00;96690.69;10412312;28;20208;-58
2022/05/17 01:44:12;;;;;;;14.02;9.48;;;;;;;14.53;100.00;96695.78;10412369;28;20275;-56
2022/05/17 01:49:12;;;;;;;13.98;10.02;;;;;;;14.48;100.00;96702.56;10411908;28;20252;-55
2022/05/17 01:54:13;;;;;;;12.82;9.60;;;;;;;14.52;100.00;96696.75;10412385;28;20220;-53
2022/05/17 01:59:13;;;;;;;16.20;10.20;;;;;;;14.48;100.00;96682.28;10411902;28;20217;-54
2022/05/17 02:04:14;;;;;;;13.60;10.32;;;;;;;14.56;100.00;96691.94;10412043;28;20197;-52
2022/05/17 02:09:14;;;;;;;17.95;12.93;;;;;;;14.54;100.00;96693.94;10411514;28;20224;-53
2022/05/17 02:14:14;;;;;;;15.98;12.20;;;;;;;14.62;100.00;96689.44;10411572;28;20246;-55
2022/05/17 02:19:19;;;;;;;14.93;12.77;;;;;;;14.63;100.00;96693.69;10410842;28;20212;-55
2022/05/17 02:24:19;;;;;;;22.88;16.35;;;;;;;14.59;100.00;96712.66;10411150;28;20196;-56
2022/05/17 02:29:20;;;;;;;24.15;15.82;;;;;;;14.77;100.00;96701.78;10410794;28;20223;-52
2022/05/17 02:34:20;;;;;;;23.73;17.25;;;;;;;14.70;100.00;96693.78;10410734;28;20224;-57
2022/05/17 02:39:22;;;;;;;40.72;31.10;;;;;;;14.64;100.00;96699.78;10410833;28;20212;-52
2022/05/17 02:44:22;;;;;;;43.70;34.42;;;;;;;14.69;100.00;96696.59;10410618;28;20760;-55
2022/05/17 02:49:23;;;;;;;42.75;34.25;;;;;;;14.64;100.00;96697.16;10410270;28;20606;-55
2022/05/17 02:54:23;;;;;;;37.10;32.60;;;;;;;14.58;100.00;96703.94;10410425;28;20642;-56
2022/05/17 02:59:25;;;;;;;38.75;32.15;;;;;;;14.59;100.00;96702.09;10410366;28;20576;-54
2022/05/17 03:04:29;;;;;;;38.60;31.33;;;;;;;14.74;100.00;96715.31;10410689;28;20197;-57
2022/05/17 03:09:30;;;;;;;41.88;32.33;;;;;;;14.72;100.00;96704.97;10410160;28;20208;-52
2022/05/17 03:14:31;;;;;;;39.13;34.17;;;;;;;14.48;100.00;96721.84;10410202;28;20224;-54
2022/05/17 03:19:31;;;;;;;40.72;34.10;;;;;;;14.61;100.00;96716.78;10410085;28;20331;-56
2022/05/17 03:24:32;;;;;;;50.30;37.97;;;;;;;14.57;100.00;96722.56;10409956;28;20205;-53
2022/05/17 03:29:33;;;;;;;62.13;42.85;;;;;;;14.49;100.00;96720.84;10409469;28;20214;-55
2022/05/17 03:34:33;;;;;;;65.25;45.72;;;;;;;14.44;100.00;96734.56;10416612;28;20238;-53
2022/05/17 03:39:34;;;;;;;65.07;45.40;;;;;;;14.55;100.00;96733.31;10417536;28;20209;-52
2022/05/17 03:44:36;;;;;;;53.97;39.90;;;;;;;14.42;100.00;96746.28;10417358;28;20319;-55
2022/05/17 03:49:38;;;;;;;43.95;35.65;;;;;;;14.20;100.00;96740.88;10416862;28;20240;-54
2022/05/17 03:54:39;;;;;;;30.80;27.38;;;;;;;14.36;100.00;96752.28;10417014;28;20299;-53
2022/05/17 03:59:39;;;;;;;29.85;21.52;;;;;;;14.21;100.00;96754.88;10416418;28;20299;-52
2022/05/17 04:04:40;;;;;;;29.45;19.55;;;;;;;13.91;100.00;96752.97;10416656;28;20641;-52
2022/05/17 04:09:40;;;;;;;21.52;17.85;;;;;;;13.94;100.00;96748.38;10416633;28;20590;-55
2022/05/17 04:14:41;;;;;;;24.20;18.20;;;;;;;13.85;100.00;96748.41;10417459;28;20201;-58
2022/05/17 04:19:41;;;;;;;20.73;16.70;;;;;;;13.84;100.00;96759.13;10416056;28;20211;-59
2022/05/17 04:24:42;;;;;;;19.23;15.27;;;;;;;13.60;100.00;96755.66;10415938;28;20184;-59
2022/05/17 04:29:42;;;;;;;17.38;14.55;;;;;;;13.65;100.00;96752.50;10414881;28;20219;-54
2022/05/17 04:34:42;;;;;;;19.77;14.13;;;;;;;13.56;100.00;96751.75;10415537;28;20619;-58
2022/05/17 04:39:43;;;;;;;18.20;13.57;;;;;;;13.45;100.00;96762.69;10415575;28;20690;-57
2022/05/17 04:44:43;;;;;;;21.98;13.13;;;;;;;13.38;100.00;96765.16;10414686;28;20188;-55
2022/05/17 04:49:43;;;;;;;14.00;12.50;;;;;;;13.35;100.00;96773.41;10414959;28;20236;-60
2022/05/17 04:54:44;;;;;;;16.45;13.02;;;;;;;13.38;100.00;96775.69;10414826;28;20203;-59
2022/05/17 04:59:44;;;;;;;19.65;14.95;;;;;;;13.35;100.00;96781.28;10414579;28;20311;-59
2022/05/17 05:04:45;;;;;;;19.05;15.32;;;;;;;13.38;100.00;96792.31;10414677;28;20619;-58
2022/05/17 05:09:45;;;;;;;20.30;16.10;;;;;;;13.34;100.00;96798.09;10414068;28;20399;-59
2022/05/17 05:14:47;;;;;;;16.88;14.57;;;;;;;13.36;100.00;96793.47;10414138;28;20188;-54
2022/05/17 05:19:47;;;;;;;21.33;18.90;;;;;;;13.30;100.00;96813.34;10413708;28;20645;-59
2022/05/17 05:24:48;;;;;;;22.55;18.30;;;;;;;13.35;100.00;96807.59;10413315;28;20620;-59
2022/05/17 05:29:48;;;;;;;22.23;16.95;;;;;;;13.41;100.00;96822.72;10412010;28;20244;-59
2022/05/17 05:34:49;;;;;;;19.83;17.05;;;;;;;13.29;100.00;96829.31;10413103;28;20652;-58
2022/05/17 05:39:49;;;;;;;15.30;13.18;;;;;;;13.32;100.00;96840.34;10413145;28;20581;-58
2022/05/17 05:44:49;;;;;;;15.15;13.18;;;;;;;13.13;100.00;96846.78;10412657;28;20609;-59
2022/05/17 05:49:50;;;;;;;15.73;11.60;;;;;;;13.10;100.00;96847.13;10412675;28;20266;-60
2022/05/17 05:54:50;;;;;;;17.60;13.07;;;;;;;13.12;100.00;96855.66;10411334;28;20239;-58
2022/05/17 05:59:51;;;;;;;15.80;13.15;;;;;;;13.13;100.00;96857.31;10411296;28;20218;-60
2022/05/17 06:04:51;;;;;;;21.35;15.98;;;;;;;13.16;100.00;96861.44;10412309;28;20266;-57
2022/05/17 06:09:51;;;;;;;23.58;16.60;;;;;;;13.15;100.00;96871.09;10411931;28;20212;-59
2022/05/17 06:14:52;;;;;;;22.85;18.50;;;;;;;13.13;100.00;96870.47;10411695;28;20374;-59
2022/05/17 06:19:52;;;;;;;27.27;18.92;;;;;;;13.17;100.00;96877.03;10411779;28;20220;-58
2022/05/17 06:24:53;;;;;;;30.20;20.35;;;;;;;13.12;100.00;96881.16;10411658;28;20338;-59
2022/05/17 06:29:53;;;;;;;26.83;19.13;;;;;;;13.13;100.00;96885.44;10410991;28;20299;-55
2022/05/17 06:34:54;;;;;;;27.92;20.95;;;;;;;13.13;100.00;96894.13;10411376;28;20287;-59
2022/05/17 06:39:55;;;;;;;22.98;18.17;;;;;;;13.08;100.00;96891.19;10411140;28;20215;-56
2022/05/17 06:44:55;;;;;;;24.85;17.55;;;;;;;13.01;100.00;96893.66;10411192;28;20325;-60
2022/05/17 06:49:56;;;;;;;21.75;16.75;;;;;;;12.93;100.00;96906.84;10405043;28;20670;-54
2022/05/17 06:54:56;;;;;;;20.00;16.25;;;;;;;13.03;100.00;96914.53;10409232;28;20200;-58
2022/05/17 06:59:57;;;;;;;21.40;16.67;;;;;;;12.97;100.00;96915.19;10409101;28;20324;-56
2022/05/17 07:04:58;;;;;;;22.30;16.77;;;;;;;12.98;100.00;96922.13;10409277;28;20188;-59
2022/05/17 07:15:17;;;;;;;23.85;16.88;;;;;;;13.04;100.00;96924.06;10417148;28;20192;-52
2022/05/17 07:20:17;;;;;;;16.83;14.65;;;;;;;12.99;100.00;96934.28;10415594;28;20221;-59
2022/05/17 07:25:18;;;;;;;22.05;14.15;;;;;;;13.10;100.00;96941.00;10416738;28;20254;-59
2022/05/17 07:30:18;;;;;;;19.15;13.65;;;;;;;13.07;100.00;96944.78;10416122;28;20251;-59
2022/05/17 07:35:19;;;;;;;19.98;14.27;;;;;;;13.01;100.00;96934.94;10416113;28;20259;-52
2022/05/17 07:40:19;;;;;;;16.00;12.90;;;;;;;12.95;100.00;96944.28;10416557;28;20691;-58
2022/05/17 07:45:20;;;;;;;16.90;12.95;;;;;;;13.03;100.00;96941.69;10415774;28;20188;-55
2022/05/17 07:50:20;;;;;;;17.55;11.00;;;;;;;13.15;100.00;96951.84;10415598;28;20327;-59
2022/05/17 07:55:21;;;;;;;13.45;10.10;;;;;;;13.32;100.00;96952.63;10414517;28;20290;-57
2022/05/17 08:00:21;;;;;;;14.40;10.85;;;;;;;13.32;100.00;96961.38;10415441;28;20212;-58
2022/05/17 08:05:22;;;;;;;12.38;9.43;;;;;;;13.73;100.00;96953.34;10415081;28;20608;-56
2022/05/17 08:10:22;;;;;;;11.10;9.13;;;;;;;13.72;100.00;96964.06;10414984;28;20220;-56
2022/05/17 08:15:23;;;;;;;10.27;8.10;;;;;;;13.66;100.00;96972.63;10415023;28;20270;-55
2022/05/17 08:20:24;;;;;;;11.43;7.45;;;;;;;13.62;100.00;96971.34;10413860;28;20201;-51
2022/05/17 08:30:44;;;;;;;11.82;8.75;;;;;;;13.45;100.00;96978.47;10414584;28;20311;-59
2022/05/17 08:36:05;;;;;;;14.18;8.63;;;;;;;13.53;100.00;96984.53;10413800;28;20196;-60
2022/05/17 08:41:27;;;;;;;15.02;9.43;;;;;;;13.49;100.00;96987.66;10373380;28;20189;-59
2022/05/17 08:46:46;;;;;;;10.05;9.05;;;;;;;13.53;100.00;96994.22;10408616;28;20602;-57
2022/05/17 08:52:09;;;;;;;11.23;9.18;;;;;;;13.42;100.00;96998.03;10412703;28;20236;-56
2022/05/17 08:57:31;;;;;;;10.38;8.30;;;;;;;13.54;100.00;96996.69;10409300;28;20224;-59
2022/05/17 09:02:44;;;;;;;9.70;8.70;;;;;;;13.54;100.00;97006.41;10410566;28;20216;-55
2022/05/17 09:08:12;;;;;;;12.82;10.15;;;;;;;13.53;100.00;97004.75;10409246;28;20319;-59
2022/05/17 09:13:20;;;;;;;15.85;11.02;;;;;;;13.50;100.00;97005.91;10409297;28;20550;-53
2022/05/17 09:18:22;;;;;;;14.73;11.38;;;;;;;13.47;100.00;97011.50;10411895;28;20220;-57
2022/05/17 09:23:23;;;;;;;12.30;10.43;;;;;;;13.70;100.00;97021.34;10411758;28;20224;-57
2022/05/17 09:28:26;;;;;;;15.00;10.88;;;;;;;13.80;100.00;97014.09;10410005;28;20307;-54
2022/05/17 09:33:28;;;;;;;15.90;11.85;;;;;;;13.66;100.00;97020.88;10421895;28;20319;-57
2022/05/17 09:38:30;;;;;;;14.88;11.23;;;;;;;13.87;100.00;97017.69;10377416;28;20217;-56
2022/05/17 09:43:45;;;;;;;13.18;11.55;;;;;;;14.08;100.00;97018.91;10391787;28;20215;-58
2022/05/17 09:54:43;;;;;;;17.88;12.50;;;;;;;14.50;100.00;97025.66;10438133;23;20244;-55
2022/05/17 09:59:44;;;;;;;14.07;11.93;;;;;;;14.59;100.00;97029.03;10446107;28;20208;-53
2022/05/17 10:04:45;;;;;;;12.27;10.35;;;;;;;14.44;100.00;97044.75;10446817;28;20211;-54
2022/05/17 10:09:45;;;;;;;12.07;10.68;;;;;;;14.21;100.00;97047.34;10447213;28;20549;-55
2022/05/17 10:14:49;;;;;;;13.55;10.85;;;;;;;14.47;100.00;97047.06;10448120;28;20634;-56
2022/05/17 10:19:54;;;;;;;14.63;12.18;;;;;;;14.35;100.00;97056.34;10436391;28;20733;-54
2022/05/17 10:24:58;;;;;;;13.68;10.60;;;;;;;14.85;100.00;97059.56;10437998;28;20289;-58
2022/05/17 10:30:11;;;;;;;11.45;10.05;;;;;;;14.87;100.00;97058.41;10439310;28;20193;-57
2022/05/17 10:35:32;;;;;;;15.80;11.95;;;;;;;14.68;100.00;97064.94;10404008;28;20219;-57
2022/05/17 10:40:43;;;;;;;12.32;10.90;;;;;;;14.72;100.00;97060.16;10405688;28;20198;-54
2022/05/17 10:45:46;;;;;;;12.23;10.35;;;;;;;14.88;100.00;97065.31;10406582;28;20321;-55
2022/05/17 10:50:53;;;;;;;16.50;11.57;;;;;;;14.86;100.00;97062.03;10405954;28;20255;-55
2022/05/17 10:56:22;;;;;;;17.50;11.52;;;;;;;15.08;100.00;97070.13;10403854;28;20243;-55
2022/05/17 11:01:30;;;;;;;14.55;11.48;;;;;;;15.47;100.00;97066.53;10405950;28;20690;-57
2022/05/17 11:06:40;;;;;;;14.73;10.55;;;;;;;15.87;100.00;97075.91;10404790;28;20718;-55
2022/05/17 11:12:05;;;;;;;14.75;10.52;;;;;;;15.66;100.00;97073.94;10405370;28;20354;-57
2022/05/17 11:17:40;;;;;;;15.68;11.40;;;;;;;15.85;100.00;97077.91;10418040;28;20191;-54
2022/05/17 11:22:48;;;;;;;17.77;9.85;;;;;;;16.74;100.00;97077.03;10431226;28;20215;-55
2022/05/17 11:28:16;;;;;;;12.38;8.30;;;;;;;17.25;100.00;97051.50;10447490;28;20215;-58
2022/05/17 11:33:35;;;;;;;9.20;8.18;;;;;;;18.31;100.00;97062.00;10410497;28;20778;-58
2022/05/17 11:38:35;;;;;;;10.35;8.57;;;;;;;19.07;96.97;97042.47;10403859;28;20207;-60
2022/05/17 11:43:54;;;;;;;11.48;7.10;;;;;;;19.29;99.61;97046.78;10416550;28;20698;-59
2022/05/17 11:49:18;;;;;;;9.63;6.80;;;;;;;19.64;89.39;97012.03;10428006;28;20196;-62
2022/05/17 11:54:40;;;;;;;9.85;6.60;;;;;;;19.63;90.73;97032.44;10403719;28;20281;-60
2022/05/17 11:59:53;;;;;;;9.30;6.18;;;;;;;19.25;92.36;97057.81;10421354;28;20549;-60
2022/05/17 12:04:54;;;;;;;13.90;7.63;;;;;;;18.64;92.69;97050.72;10411892;28;20205;-59
2022/05/17 12:09:57;;;;;;;8.57;6.70;;;;;;;18.45;97.73;97062.91;10409617;28;20619;-59
2022/05/17 12:15:14;;;;;;;18.73;9.10;;;;;;;18.44;100.00;97060.44;10410900;28;20231;-57
2022/05/17 12:20:31;;;;;;;10.02;7.65;;;;;;;18.87;100.00;97061.00;10410316;28;20211;-58
2022/05/17 12:25:51;;;;;;;8.38;6.57;;;;;;;19.63;87.57;97005.06;10410705;28;20247;-53
2022/05/17 12:30:53;;;;;;;9.35;6.55;;;;;;;20.51;91.05;97038.41;10410483;28;20303;-59
2022/05/17 12:35:56;;;;;;;7.82;5.03;;;;;;;21.11;81.06;97004.25;10410435;28;20221;-58
2022/05/17 12:46:30;;;;;;;8.15;5.32;;;;;;;20.95;74.61;96975.47;10409278;28;20674;-59
2022/05/17 12:51:31;;;;;;;9.85;4.65;;;;;;;21.81;71.81;96936.59;10411202;28;20583;-58
2022/05/17 12:56:36;;;;;;;8.95;4.95;;;;;;;21.41;76.69;97019.63;10410696;28;20351;-57
2022/05/17 13:01:42;;;;;;;8.55;5.82;;;;;;;21.38;72.47;96948.09;10368395;28;20189;-58
2022/05/17 13:06:49;;;;;;;8.25;5.00;;;;;;;22.22;72.54;96958.25;10368403;28;20252;-57
2022/05/17 13:11:52;;;;;;;8.38;5.15;;;;;;;22.64;72.88;96966.38;10368555;28;20225;-59
2022/05/17 13:16:52;;;;;;;7.40;4.13;;;;;;;23.59;63.87;96867.56;10408442;28;20410;-56
2022/05/17 13:21:54;;;;;;;4.78;3.90;;;;;;;23.30;68.66;96967.22;10408177;28;20181;-60
2022/05/17 13:27:00;;;;;;;5.22;4.10;;;;;;;22.57;68.35;96944.28;10409492;28;20193;-58
2022/05/17 13:32:04;;;;;;;5.60;4.10;;;;;;;22.52;64.87;96904.09;10407350;28;20299;-61
2022/05/17 13:37:14;;;;;;;6.63;4.68;;;;;;;21.88;68.63;96963.19;10408631;28;20189;-60
2022/05/17 13:42:22;;;;;;;7.90;4.28;;;;;;;22.30;68.05;96949.97;10408894;28;20243;-60
2022/05/17 13:47:39;;;;;;;7.75;4.45;;;;;;;22.36;66.14;96932.25;10407595;28;20196;-57
2022/05/17 13:52:45;;;;;;;4.20;3.35;;;;;;;23.81;61.85;96892.66;10409325;28;20228;-58
2022/05/17 13:57:48;;;;;;;6.00;4.18;;;;;;;23.77;62.40;96915.56;10407799;28;20195;-55
2022/05/17 14:02:48;;;;;;;5.65;3.53;;;;;;;23.91;58.47;96843.91;10405361;28;20578;-58
2022/05/17 14:13:26;;;;;;;5.45;4.00;;;;;;;22.76;61.88;96905.78;10402094;28;20847;-61
2022/05/17 14:18:37;;;;;;;7.07;3.22;;;;;;;22.32;63.05;96931.88;10394976;28;20196;-60
2022/05/17 14:23:38;;;;;;;8.18;3.42;;;;;;;21.42;64.83;96929.81;10427743;28;20219;-60
2022/05/17 14:28:39;;;;;;;6.22;3.83;;;;;;;20.92;67.62;96978.56;10425144;28;20203;-56
2022/05/17 14:33:39;;;;;;;8.48;4.88;;;;;;;19.86;73.42;97037.38;10413963;28;20281;-55
2022/05/17 14:38:39;;;;;;;6.88;4.70;;;;;;;18.95;76.61;97053.91;10449452;28;20195;-54
2022/05/17 14:43:41;;;;;;;7.82;4.63;;;;;;;19.16;78.46;97048.41;10450574;28;20206;-54
2022/05/17 14:48:42;;;;;;;7.47;4.38;;;;;;;19.16;81.72;97059.03;10441864;28;20200;-55
2022/05/17 14:53:43;;;;;;;6.97;4.70;;;;;;;19.64;75.93;97001.38;10409062;28;20232;-57
2022/05/17 14:58:43;;;;;;;10.30;4.60;;;;;;;20.33;76.74;97034.56;10409242;28;20247;-55
2022/05/17 15:03:47;;;;;;;11.73;5.05;;;;;;;20.34;78.29;97048.69;10408413;28;20208;-56
2022/05/17 15:08:48;;;;;;;9.55;4.75;;;;;;;20.30;74.05;97006.53;10409006;28;20193;-58
2022/05/17 15:13:48;;;;;;;7.13;5.72;;;;;;;19.50;78.60;97049.22;10408124;28;20231;-58
2022/05/17 15:18:51;;;;;;;9.65;4.93;;;;;;;20.09;78.34;97042.22;10409032;28;20203;-56
2022/05/17 15:23:52;;;;;;;7.90;4.60;;;;;;;20.60;74.30;96995.34;10404540;28;20303;-58
2022/05/17 15:28:52;;;;;;;4.88;3.67;;;;;;;21.08;70.54;96945.28;10403229;28;20200;-60
2022/05/17 15:33:54;;;;;;;6.57;4.30;;;;;;;20.91;69.44;96956.47;10420002;28;20224;-60
2022/05/17 15:38:54;;;;;;;8.18;4.60;;;;;;;20.87;70.64;96979.22;10430445;28;20204;-55
2022/05/17 15:43:54;;;;;;;11.07;4.20;;;;;;;24.43;58.54;96828.75;10420257;28;20213;-59
2022/05/17 15:54:17;;;;;;;5.75;3.38;;;;;;;25.03;56.93;96841.50;10453523;22;20245;-57
2022/05/17 15:59:19;;;;;;;5.68;3.50;;;;;;;24.78;56.88;96849.97;10414544;28;20675;-58
2022/05/17 16:09:39;;;;;;;7.28;4.22;;;;;;;20.65;66.73;96965.44;10415422;28;20685;-55
2022/05/17 16:14:40;;;;;;;6.03;4.57;;;;;;;22.19;64.88;96926.69;10416669;28;20235;-60
2022/05/17 16:19:43;;;;;;;7.63;4.55;;;;;;;20.85;65.59;96925.38;10416482;28;20193;-57
2022/05/17 16:24:43;;;;;;;5.85;4.40;;;;;;;20.82;67.77;96971.06;10398501;28;20654;-53
2022/05/17 16:29:44;;;;;;;11.35;4.13;;;;;;;21.15;69.16;96997.47;10415839;28;20223;-60
2022/05/17 16:34:44;;;;;;;6.10;4.22;;;;;;;20.41;71.41;97009.56;10413699;28;20228;-57
2022/05/17 16:39:46;;;;;;;5.70;4.55;;;;;;;20.39;69.96;96982.38;10414222;28;20223;-59
2022/05/17 16:44:47;;;;;;;5.70;4.18;;;;;;;20.07;72.07;97017.66;10413257;28;20586;-60
2022/05/17 16:49:48;;;;;;;9.35;3.80;;;;;;;19.30;76.53;97043.91;10415204;28;20184;-56
2022/05/17 16:54:48;;;;;;;7.40;4.05;;;;;;;19.34;75.56;97034.53;10414568;28;20754;-58
2022/05/17 16:59:49;;;;;;;7.13;5.05;;;;;;;19.32;76.06;97035.75;10414605;28;20192;-56
2022/05/17 17:04:49;;;;;;;5.43;3.92;;;;;;;19.05;79.16;97064.91;10414698;28;20309;-59
2022/05/17 17:09:50;;;;;;;6.13;5.13;;;;;;;18.98;80.31;97069.41;10414335;28;20212;-59
2022/05/17 17:14:51;;;;;;;7.28;4.88;;;;;;;18.49;84.65;97071.28;10396318;28;20228;-58
2022/05/17 17:19:52;;;;;;;9.50;5.85;;;;;;;18.39;84.36;97057.56;10413688;28;20196;-59
2022/05/17 17:24:52;;;;;;;10.60;6.05;;;;;;;18.35;87.36;97078.34;10412691;28;20216;-59
2022/05/17 17:29:53;;;;;;;12.20;6.65;;;;;;;17.95;88.72;97072.84;10412894;28;20224;-57
2022/05/17 17:40:15;;;;;;;9.55;6.65;;;;;;;18.06;91.05;97090.03;10412651;28;20189;-59
2022/05/17 17:45:24;;;;;;;11.05;6.43;;;;;;;17.55;95.35;97099.00;10412373;28;20216;-54
2022/05/17 17:50:26;;;;;;;8.95;6.35;;;;;;;17.45;100.00;97099.34;10410979;28;20698;-59
2022/05/17 17:55:29;;;;;;;14.60;6.57;;;;;;;17.37;100.00;97112.72;10412042;28;20244;-58
2022/05/17 18:00:31;;;;;;;9.23;6.53;;;;;;;17.05;100.00;97110.34;10411709;28;20683;-58
2022/05/17 18:05:35;;;;;;;9.32;5.93;;;;;;;17.14;100.00;97112.91;10411393;28;20212;-51
2022/05/17 18:10:35;;;;;;;7.88;5.15;;;;;;;16.89;100.00;97111.41;10411397;28;20224;-53
2022/05/17 18:15:36;;;;;;;8.30;5.10;;;;;;;16.58;100.00;97124.84;10393523;28;20295;-51
2022/05/17 18:20:37;;;;;;;9.75;5.18;;;;;;;16.50;100.00;97117.03;10411362;28;20192;-51
2022/05/17 18:25:39;;;;;;;7.50;5.43;;;;;;;16.39;100.00;97132.34;10411068;28;20213;-52
2022/05/17 18:30:41;;;;;;;6.38;5.72;;;;;;;16.16;100.00;97132.44;10411443;28;20220;-53
2022/05/17 18:35:43;;;;;;;9.05;5.97;;;;;;;15.74;100.00;97148.81;10410780;28;20298;-54
2022/05/17 18:40:45;;;;;;;9.15;6.90;;;;;;;14.90;100.00;97147.75;10411401;28;20231;-54
2022/05/17 18:45:46;;;;;;;11.07;7.22;;;;;;;14.65;100.00;97156.75;10410809;28;20730;-58
2022/05/17 18:50:47;;;;;;;9.75;6.97;;;;;;;15.02;100.00;97157.91;10410688;28;20220;-57
2022/05/17 18:55:47;;;;;;;12.15;7.07;;;;;;;14.93;100.00;97165.88;10392939;28;20604;-50
2022/05/17 19:00:50;;;;;;;12.00;8.50;;;;;;;14.09;100.00;97165.47;10411683;28;20192;-58
2022/05/17 19:05:53;;;;;;;17.38;12.40;;;;;;;14.06;100.00;97166.63;10401612;28;20221;-56
2022/05/17 19:16:18;;;;;;;12.60;8.65;;;;;;;14.36;100.00;97172.13;10418634;28;20215;-57
2022/05/17 19:21:38;;;;;;;14.50;12.38;;;;;;;13.93;100.00;97176.03;10418460;28;20558;-51
2022/05/17 19:26:42;;;;;;;50.10;34.35;;;;;;;13.70;100.00;97174.84;10417965;28;20216;-52
2022/05/17 19:31:46;;;;;;;20.63;16.65;;;;;;;13.63;100.00;97178.31;10418178;28;20221;-51
2022/05/17 19:42:15;;;;;;;12.05;10.13;;;;;;;13.64;100.00;97177.34;10417881;28;20189;-57
2022/05/17 19:47:18;;;;;;;13.55;9.80;;;;;;;13.55;100.00;97176.50;10417520;28;20229;-51
2022/05/17 19:52:20;;;;;;;18.80;10.07;;;;;;;13.48;100.00;97183.44;10417041;28;20227;-51
2022/05/17 19:57:24;;;;;;;13.93;9.60;;;;;;;13.47;100.00;97179.97;10416809;28;20263;-50
2022/05/17 20:02:25;;;;;;;11.57;10.35;;;;;;;13.28;100.00;97194.22;10417026;28;20188;-51
2022/05/17 20:07:25;;;;;;;10.90;9.73;;;;;;;13.31;100.00;97203.59;10416521;28;20193;-50
2022/05/17 20:12:26;;;;;;;11.55;8.88;;;;;;;13.37;100.00;97214.34;10415389;28;20630;-50
2022/05/17 20:17:26;;;;;;;11.50;8.23;;;;;;;13.42;100.00;97215.66;10416533;28;20200;-52
2022/05/17 20:22:27;;;;;;;13.20;8.10;;;;;;;13.44;100.00;97218.94;10416524;28;20639;-50
2022/05/17 20:27:27;;;;;;;9.13;8.05;;;;;;;13.44;100.00;97218.94;10415972;28;20562;-50
2022/05/17 20:32:30;;;;;;;11.23;8.40;;;;;;;13.24;100.00;97221.81;10415630;28;20256;-50
2022/05/17 20:37:30;;;;;;;10.10;8.80;;;;;;;13.10;100.00;97230.34;10397946;28;20629;-50
2022/05/17 20:42:33;;;;;;;10.73;8.77;;;;;;;13.14;100.00;97239.56;10415445;28;20188;-52
2022/05/17 20:52:53;;;;;;;8.20;7.15;;;;;;;13.03;100.00;97230.16;10412255;28;20220;-51
2022/05/17 20:57:53;;;;;;;11.18;7.70;;;;;;;12.99;100.00;97231.47;10413224;28;20200;-53
2022/05/17 21:02:56;;;;;;;10.85;6.80;;;;;;;12.85;100.00;97230.25;10414864;28;20576;-51
2022/05/17 21:07:56;;;;;;;8.10;5.68;;;;;;;12.76;100.00;97229.41;10414079;28;20555;-53
2022/05/17 21:12:57;;;;;;;9.05;5.88;;;;;;;12.56;100.00;97223.53;10414311;28;20220;-50
2022/05/17 21:18:01;;;;;;;10.05;6.07;;;;;;;12.43;100.00;97233.66;10413911;28;20193;-53
2022/05/17 21:23:03;;;;;;;6.95;4.90;;;;;;;12.63;100.00;97223.72;10415525;28;20216;-57
2022/05/17 21:28:06;;;;;;;8.15;5.10;;;;;;;12.38;100.00;97220.16;10413488;28;20659;-53
2022/05/17 21:33:06;;;;;;;7.18;5.10;;;;;;;12.35;100.00;97221.28;10395456;28;20749;-56
2022/05/17 21:38:08;;;;;;;10.75;5.13;;;;;;;12.38;100.00;97217.53;10413269;28;20205;-56
2022/05/17 21:43:10;;;;;;;9.57;4.80;;;;;;;12.31;100.00;97227.81;10412912;28;20215;-55
2022/05/17 21:48:11;;;;;;;6.65;5.00;;;;;;;12.26;100.00;97224.84;10412956;28;20216;-58
2022/05/17 21:53:14;;;;;;;7.85;4.65;;;;;;;12.23;100.00;97220.72;10394676;28;20235;-58
2022/05/17 21:58:20;;;;;;;9.65;4.70;;;;;;;12.33;100.00;97220.63;10412555;28;20225;-57
2022/05/17 22:03:22;;;;;;;6.47;4.22;;;;;;;12.21;100.00;97219.25;10394522;28;20216;-55
2022/05/17 22:08:23;;;;;;;6.95;4.22;;;;;;;12.24;100.00;97226.81;10411801;28;20729;-56
2022/05/17 22:18:43;;;;;;;5.97;4.15;;;;;;;12.14;100.00;97232.16;10411281;28;20196;-55
2022/05/17 22:23:45;;;;;;;9.00;4.45;;;;;;;12.11;100.00;97238.53;10411340;28;20291;-54
2022/05/17 22:28:45;;;;;;;5.97;3.60;;;;;;;12.03;100.00;97241.09;10411107;28;20258;-51
2022/05/17 22:33:46;;;;;;;10.30;4.30;;;;;;;11.94;100.00;97249.88;10410859;28;20221;-51
2022/05/17 22:38:47;;;;;;;5.75;3.83;;;;;;;11.84;100.00;97251.72;10392858;28;20307;-55
2022/05/17 22:43:47;;;;;;;6.03;4.03;;;;;;;11.82;100.00;97243.19;10410528;28;20755;-51
2022/05/17 22:48:48;;;;;;;9.50;3.95;;;;;;;11.79;100.00;97249.56;10410492;28;20264;-54
2022/05/17 22:53:48;;;;;;;6.10;3.53;;;;;;;11.80;100.00;97250.41;10409457;28;20616;-51
2022/05/17 22:58:48;;;;;;;8.65;3.60;;;;;;;11.66;100.00;97244.69;10410461;28;20667;-51
2022/05/17 23:03:50;;;;;;;7.80;4.15;;;;;;;11.60;100.00;97255.78;10410374;28;20212;-51
2022/05/17 23:08:50;;;;;;;6.18;3.72;;;;;;;11.64;100.00;97259.78;10410100;28;20246;-50
2022/05/17 23:13:51;;;;;;;7.13;3.35;;;;;;;11.53;100.00;97262.59;10410322;28;20232;-51
2022/05/17 23:18:51;;;;;;;6.20;4.17;;;;;;;11.51;100.00;97257.50;10409912;28;20189;-50
2022/05/17 23:23:52;;;;;;;8.18;3.95;;;;;;;11.53;100.00;97265.22;10410007;28;20211;-52
2022/05/17 23:28:52;;;;;;;8.88;3.65;;;;;;;11.58;100.00;97268.25;10409630;28;20192;-51
2022/05/17 23:33:55;;;;;;;11.00;3.40;;;;;;;11.46;100.00;97264.19;10409518;28;20272;-51
2022/05/17 23:38:57;;;;;;;5.40;3.60;;;;;;;11.42;100.00;97266.25;10409877;28;20193;-50
2022/05/17 23:43:58;;;;;;;5.15;3.30;;;;;;;11.48;100.00;97272.72;10409341;28;20208;-50
2022/05/17 23:48:59;;;;;;;6.03;3.20;;;;;;;11.42;100.00;97267.13;10413609;28;20192;-52
2022/05/17 23:53:59;;;;;;;8.02;3.33;;;;;;;11.34;100.00;97269.63;10416695;28;20236;-50
2022/05/17 23:59:00;;;;;;;5.57;3.35;;;;;;;11.26;100.00;97276.59;10416573;28;20238;-51
